Marble Bar, Australia
Current Conditions -  °F | °C
As of 12:30 AM on Sunday 23 Nov 2014 (Local Time) from YPPD Reporting Station
Clear Clear  
Wind Chill: 75°   Ceiling: Unl
Heat Index: 75°   Visibility: 6mi
Dew Point: 72°   Wind: 8mph
Humidity: 89%   Direction: 250°WSW
Pressure: 29.77"   Gusts: NA
Location:  21.17°S, 119.74°E
Report Text: YPPD 221630Z AUTO 25007KT 9999 // NCD 24/22 Q1008
Loading
Personal Weather Stations






























Interactive Weather Map New forecast layout! Learn more

10-Day Weather Forecast

Advertisements
Track Severe Weather on mobile